CW8191 Weather Reports


Display with metric or nautical units.
time (UTC)temp
F
wind
direction
speed
MPH
gust
MPH
rain 1hr
in
rain 24hr
in
rain mn
in
humidity
%
barometer
mb
20190324180959 47 202 0.0 0.0 0.00 0.00 0.00 55 23.0
20190324174959 48 158 0.0 2.0 0.00 0.00 0.00 54 23.0
20190324173958 49 202 0.0 3.0 0.00 0.00 0.00 54 23.0
20190324171958 49 180 1.0 5.0 0.00 0.00 0.00 57 23.0
20190324164958 53 180 1.0 5.0 0.00 0.00 0.00 56 23.0
20190324163958 52 112 1.0 4.0 0.00 0.00 0.00 55 23.0
20190324163001 52 158 1.0 5.0 0.00 0.00 0.00 56 23.0
20190324161001 55 90 1.0 4.0 0.00 0.00 0.00 55 23.0
20190324160001 54 112 1.0 4.0 0.00 0.00 0.00 56 23.0
20190324154001 53 68 1.0 6.0 0.00 0.00 0.00 58 23.0
20190324151000 50 112 1.0 4.0 0.00 0.00 0.00 62 23.0
20190324144000 49 90 1.0 4.0 0.00 0.00 0.00 63 24.0
20190324143000 50 180 1.0 4.0 0.00 0.00 0.00 62 24.0
20190324142000 50 90 1.0 4.0 0.00 0.00 0.00 62 24.0
20190324140959 51 158 1.0 4.0 0.00 0.00 0.00 62 24.0
20190324135959 50 158 1.0 4.0 0.00 0.00 0.00 64 24.0
20190324134959 49 158 1.0 3.0 0.00 0.00 0.00 67 24.0
20190324133959 48 90 1.0 3.0 0.00 0.00 0.00 67 24.0
20190324132959 48 158 1.0 3.0 0.00 0.00 0.00 67 24.0
20190324131959 48 112 0.0 2.0 0.00 0.00 0.00 67 24.0
20190324130959 48 22 0.0 2.0 0.00 0.00 0.00 67 24.0
20190324123958 48 158 0.0 2.0 0.00 0.00 0.00 68 24.0
20190324121958 48 202 1.0 2.0 0.00 0.00 0.00 69 24.0
20190324114958 48 112 1.0 2.0 0.00 0.00 0.00 68 25.0
20190324113958 48 112 1.0 2.0 0.00 0.00 0.00 68 25.0
20190324111002 48 202 1.0 3.0 0.00 0.00 0.00 67 24.0
20190324105001 49 22 0.0 2.0 0.00 0.00 0.00 67 24.0
20190324104002 49 22 0.0 3.0 0.00 0.00 0.00 68 24.0
20190324103001 49 112 0.0 3.0 0.00 0.00 0.00 67 24.0
20190324102001 50 112 0.0 2.0 0.00 0.00 0.00 69 24.0
20190324101001 51 158 0.0 2.0 0.00 0.00 0.00 69 24.0
20190324095001 50 45 0.0 3.0 0.00 0.00 0.00 71 24.0
20190324092000 48 0 1.0 3.0 0.00 0.00 0.00 73 25.0
20190324074959 42 68 0.0 0.0 0.00 0.00 0.00 80 25.0
20190324073959 42 68 0.0 0.0 0.00 0.00 0.00 80 25.0
20190324072959 42 68 0.0 0.0 0.00 0.00 0.00 80 25.0
20190324065958 41 225 0.0 0.0 0.00 0.00 0.00 79 25.0
20190324064958 41 225 0.0 0.0 0.00 0.00 0.00 79 25.0
20190324063958 41 225 0.0 0.0 0.00 0.00 0.00 79 25.0
20190324061958 41 202 0.0 0.0 0.00 0.00 0.00 79 25.0
20190324051957 41 202 0.0 0.0 0.00 0.00 0.00 78 25.0
20190324051002 41 202 0.0 0.0 0.00 0.00 0.00 78 25.0
20190324045002 41 202 0.0 0.0 0.00 0.00 0.00 78 25.0
20190324044001 40 202 0.0 0.0 0.00 0.00 0.00 77 25.0
20190324042001 42 202 0.0 0.0 0.00 0.00 0.00 78 25.0
20190324033000 42 202 0.0 0.0 0.00 0.00 0.00 78 25.0
20190324032000 42 202 0.0 0.0 0.00 0.00 0.00 78 25.0
20190324031000 42 202 0.0 0.0 0.00 0.00 0.00 78 25.0
20190324030000 42 202 0.0 0.0 0.00 0.00 0.00 78 25.0
20190324025000 42 338 0.0 0.0 0.00 0.00 0.00 78 25.0
20190324024000 42 338 0.0 0.0 0.00 0.00 0.00 78 25.0
20190324023000 42 0 0.0 0.0 0.00 0.00 0.00 77 25.0
20190324021959 42 0 0.0 0.0 0.00 0.00 0.00 77 25.0
20190324015959 42 45 0.0 0.0 0.00 0.00 0.00 77 25.0
20190324014959 42 45 0.0 0.0 0.00 0.00 0.00 77 25.0
20190324012959 43 158 0.0 0.0 0.00 0.00 0.00 77 26.0
20190324011959 44 158 0.0 0.0 0.00 0.00 0.00 76 26.0
20190324010958 44 158 0.0 0.0 0.00 0.00 0.00 76 26.0
20190324005958 44 158 0.0 0.0 0.00 0.00 0.00 76 26.0
20190324004958 44 158 0.0 0.0 0.00 0.00 0.00 76 26.0
20190324003958 45 45 0.0 0.0 0.00 0.00 0.00 75 26.0
20190324002958 45 22 0.0 2.0 0.00 0.00 0.00 74 26.0
20190324001958 45 90 0.0 1.0 0.00 0.00 0.00 74 26.0
20190323235958 44 338 0.0 2.0 0.00 0.00 0.00 75 26.0
20190323234957 32 112 0.0 0.0 0.00 0.00 0.00 100 26.0
20190323231000 41 22 0.0 0.0 0.00 0.00 0.00 70 27.0
20190323230000 42 22 0.0 0.0 0.00 0.00 0.00 71 27.0
20190323221959 42 158 0.0 0.0 0.00 0.00 0.00 69 27.0
20190323220959 43 22 0.0 0.0 0.00 0.00 0.00 69 27.0
20190323215959 43 22 0.0 0.0 0.00 0.00 0.00 68 27.0
20190323214959 44 22 0.0 0.0 0.00 0.00 0.00 69 27.0
20190323213959 44 0 0.0 0.0 0.00 0.00 0.00 68 27.0
20190323211958 44 202 0.0 0.0 0.00 0.00 0.00 67 27.0
20190323205958 45 202 0.0 0.0 0.00 0.00 0.00 66 27.0
20190323204958 45 180 0.0 0.0 0.00 0.00 0.00 64 28.0
20190323203958 45 45 0.0 0.0 0.00 0.00 0.00 64 27.0
20190323202958 46 45 0.0 0.0 0.00 0.00 0.00 64 27.0
20190323200957 46 45 0.0 0.0 0.00 0.00 0.00 63 28.0
20190323195957 47 90 0.0 0.0 0.00 0.00 0.00 62 28.0
20190323194957 47 202 0.0 0.0 0.00 0.00 0.00 62 28.0
20190323193957 49 45 0.0 0.0 0.00 0.00 0.00 60 28.0
20190323192002 49 45 0.0 0.0 0.00 0.00 0.00 60 28.0
20190323190002 49 180 0.0 2.0 0.00 0.00 0.00 60 28.0
20190323184001 49 22 0.0 4.0 0.00 0.00 0.00 60 28.0